createdAt,value
2018-06-24T00:00:01.347Z,0.87
2018-06-24T00:02:35.531Z,0.70
2018-06-24T00:05:09.724Z,1.60
2018-06-24T00:07:43.951Z,1.23
2018-06-24T00:10:17.842Z,1.70
2018-06-24T00:12:52.007Z,1.07
2018-06-24T00:15:26.221Z,1.30
2018-06-24T00:18:00.405Z,1.10
2018-06-24T00:20:46.058Z,0.90
2018-06-24T00:23:21.434Z,0.80
2018-06-24T00:25:55.894Z,0.90
2018-06-24T00:28:30.064Z,1.70
2018-06-24T00:31:13.987Z,1.17
2018-06-24T00:33:48.222Z,1.40
2018-06-24T00:36:22.387Z,1.47
2018-06-24T00:38:57.961Z,1.70
2018-06-24T00:41:33.152Z,1.10
2018-06-24T00:44:07.398Z,1.30
2018-06-24T00:46:41.555Z,1.67
2018-06-24T00:49:15.755Z,1.20
2018-06-24T00:51:49.911Z,1.10
2018-06-24T00:54:24.140Z,1.10
2018-06-24T00:56:58.271Z,1.50
2018-06-24T00:59:44.454Z,1.30
2018-06-24T01:02:18.576Z,1.10
2018-06-24T01:04:53.848Z,1.43
2018-06-24T01:07:28.404Z,1.20
2018-06-24T01:10:02.640Z,1.23
2018-06-24T01:12:36.783Z,1.40
2018-06-24T01:15:12.168Z,1.20
2018-06-24T01:17:46.311Z,1.37
2018-06-24T01:20:21.512Z,0.97
2018-06-24T01:22:55.632Z,1.00
2018-06-24T01:25:30.903Z,0.90
2018-06-24T01:28:05.060Z,1.40
2018-06-24T01:30:39.287Z,1.10
2018-06-24T01:33:13.482Z,1.00
2018-06-24T01:35:47.654Z,1.23
2018-06-24T01:38:21.844Z,1.27
2018-06-24T01:40:56.037Z,1.47
2018-06-24T01:43:30.190Z,1.00
2018-06-24T01:46:04.374Z,1.00
2018-06-24T01:48:38.485Z,1.27
2018-06-24T01:51:12.699Z,1.10
2018-06-24T01:53:47.897Z,1.27
2018-06-24T01:56:22.115Z,1.10
2018-06-24T01:58:56.251Z,1.27
2018-06-24T02:01:30.410Z,1.20
2018-06-24T02:04:04.550Z,1.60
2018-06-24T02:06:38.731Z,1.70
2018-06-24T02:09:13.840Z,1.60
2018-06-24T02:11:49.064Z,1.50
2018-06-24T02:14:23.217Z,1.03
2018-06-24T02:16:57.384Z,1.13
2018-06-24T02:19:31.542Z,1.30
2018-06-24T02:22:06.906Z,1.20
2018-06-24T02:24:40.541Z,1.40
2018-06-24T02:27:14.739Z,1.70
2018-06-24T02:29:48.931Z,1.50
2018-06-24T02:32:22.590Z,1.73
2018-06-24T02:34:57.764Z,1.93
2018-06-24T02:37:31.964Z,1.80
2018-06-24T02:40:06.129Z,1.67
2018-06-24T02:42:41.375Z,1.27
2018-06-24T02:45:15.504Z,1.40
2018-06-24T02:47:49.702Z,1.23
2018-06-24T02:50:23.865Z,1.50
2018-06-24T02:52:58.032Z,1.23
2018-06-24T02:55:32.220Z,1.63
2018-06-24T02:58:06.393Z,1.27
2018-06-24T03:00:41.608Z,1.53
2018-06-24T03:03:16.732Z,1.47
2018-06-24T03:05:51.352Z,1.43
2018-06-24T03:08:25.501Z,1.73
2018-06-24T03:11:00.696Z,1.43
2018-06-24T03:13:34.860Z,1.80
2018-06-24T03:16:09.039Z,1.83
2018-06-24T03:18:43.247Z,1.70
2018-06-24T03:21:17.437Z,1.50
2018-06-24T03:23:51.096Z,1.63
2018-06-24T03:26:24.775Z,2.20
2018-06-24T03:28:59.985Z,1.73
2018-06-24T03:31:34.201Z,2.13
2018-06-24T03:34:09.433Z,2.30
2018-06-24T03:36:43.559Z,1.80
2018-06-24T03:39:17.788Z,1.50
2018-06-24T03:41:51.919Z,1.97
2018-06-24T03:44:27.115Z,2.17
2018-06-24T03:47:01.280Z,1.90
2018-06-24T03:49:34.941Z,1.60
2018-06-24T03:52:09.076Z,1.67
2018-06-24T03:54:43.258Z,1.73
2018-06-24T03:57:18.416Z,2.20
2018-06-24T03:59:52.592Z,2.10
2018-06-24T04:02:27.783Z,2.07
2018-06-24T04:05:09.943Z,2.10
2018-06-24T04:07:43.781Z,1.73
2018-06-24T04:10:19.860Z,1.70
2018-06-24T04:12:56.371Z,1.53
2018-06-24T04:15:32.923Z,2.00
2018-06-24T04:18:07.130Z,2.37
2018-06-24T04:20:41.324Z,1.80
2018-06-24T04:23:30.010Z,1.80
2018-06-24T04:26:04.186Z,1.67
2018-06-24T04:28:37.965Z,2.03
2018-06-24T04:31:12.469Z,1.90
2018-06-24T04:33:46.628Z,1.83
2018-06-24T04:36:20.752Z,1.70
2018-06-24T04:38:54.923Z,1.97
2018-06-24T04:41:29.147Z,2.47
2018-06-24T04:44:03.397Z,1.40
2018-06-24T04:46:37.696Z,1.93
2018-06-24T04:49:11.867Z,1.73
2018-06-24T04:51:46.123Z,2.10
2018-06-24T04:54:20.487Z,1.70
2018-06-24T04:56:54.687Z,1.70
2018-06-24T04:59:28.799Z,1.60
2018-06-24T05:02:03.004Z,1.67
2018-06-24T05:04:37.148Z,1.70
2018-06-24T05:07:11.319Z,1.90
2018-06-24T05:09:45.448Z,1.70
2018-06-24T05:12:19.676Z,1.50
2018-06-24T05:14:53.820Z,1.47
2018-06-24T05:17:28.017Z,1.60
2018-06-24T05:20:02.170Z,1.50
2018-06-24T05:22:36.386Z,1.43
2018-06-24T05:25:10.707Z,0.90
2018-06-24T05:27:44.875Z,1.00
2018-06-24T05:30:19.086Z,1.20
2018-06-24T05:32:53.431Z,1.10
2018-06-24T05:35:27.133Z,1.63
2018-06-24T05:38:00.766Z,1.13
2018-06-24T05:40:34.920Z,1.10
2018-06-24T05:43:09.133Z,1.20
2018-06-24T05:45:43.467Z,1.23
2018-06-24T05:48:17.584Z,1.27
2018-06-24T05:50:53.139Z,1.20
2018-06-24T05:53:26.784Z,1.30
2018-06-24T05:56:00.954Z,1.50
2018-06-24T05:58:34.612Z,1.30
2018-06-24T06:01:09.807Z,1.33
2018-06-24T06:03:43.976Z,1.37
2018-06-24T06:06:19.234Z,1.80
2018-06-24T06:08:52.896Z,1.33
2018-06-24T06:11:28.406Z,1.57
2018-06-24T06:14:02.535Z,1.40
2018-06-24T06:16:36.688Z,1.17
2018-06-24T06:19:10.810Z,1.37
2018-06-24T06:21:45.564Z,1.47
2018-06-24T06:24:19.764Z,1.03
2018-06-24T06:26:53.496Z,1.27
2018-06-24T06:29:27.667Z,1.00
2018-06-24T06:32:02.956Z,1.00
2018-06-24T06:34:37.198Z,0.90
2018-06-24T06:37:11.356Z,0.70
2018-06-24T06:39:45.537Z,0.60
2018-06-24T06:42:19.678Z,0.70
2018-06-24T06:44:54.465Z,0.90
2018-06-24T06:47:30.323Z,1.07
2018-06-24T06:50:05.495Z,0.83
2018-06-24T06:52:39.613Z,1.10
2018-06-24T06:55:14.807Z,0.77
2018-06-24T06:57:48.962Z,0.97
2018-06-24T07:00:23.855Z,0.80
2018-06-24T07:02:58.564Z,0.72
2018-06-24T07:05:34.316Z,0.78
2018-06-24T07:08:08.987Z,0.53
2018-06-24T07:10:44.783Z,0.68
2018-06-24T07:13:20.008Z,0.90
2018-06-24T07:15:54.772Z,0.55
2018-06-24T07:18:29.499Z,0.70
2018-06-24T07:21:04.313Z,0.90
2018-06-24T07:23:38.500Z,1.05
2018-06-24T07:26:13.272Z,1.10
2018-06-24T07:28:47.999Z,0.72
2018-06-24T07:31:22.718Z,0.68
2018-06-24T07:34:15.787Z,0.60
2018-06-24T07:36:51.890Z,0.70
2018-06-24T07:39:31.856Z,0.53
2018-06-24T07:42:09.278Z,0.60
2018-06-24T07:44:43.960Z,0.70
2018-06-24T07:47:18.687Z,0.50
2018-06-24T07:49:52.874Z,0.42
2018-06-24T07:52:27.576Z,0.42
2018-06-24T07:55:02.283Z,0.70
2018-06-24T07:57:36.968Z,0.40
2018-06-24T08:00:11.683Z,0.50
2018-06-24T08:02:46.393Z,0.50
2018-06-24T08:05:22.335Z,0.30
2018-06-24T08:07:57.124Z,0.35
2018-06-24T08:10:31.971Z,0.20
2018-06-24T08:13:06.722Z,0.30
2018-06-24T08:15:42.920Z,0.30
2018-06-24T08:18:18.795Z,0.50
2018-06-24T08:20:58.375Z,0.30
2018-06-24T08:23:33.109Z,0.53
2018-06-24T08:26:07.835Z,0.45
2018-06-24T08:28:42.514Z,0.30
2018-06-24T08:31:17.255Z,0.25
2018-06-24T08:33:52.002Z,0.30
2018-06-24T08:36:26.779Z,0.50
2018-06-24T08:39:02.656Z,0.50
2018-06-24T08:41:37.562Z,0.47
2018-06-24T08:44:12.759Z,0.42
2018-06-24T08:49:35.577Z,0.60
2018-06-24T08:52:11.691Z,0.30
2018-06-24T08:54:46.391Z,0.35
2018-06-24T08:57:21.154Z,0.40
2018-06-24T08:59:55.831Z,0.50
2018-06-24T09:02:31.627Z,0.42
2018-06-24T09:05:07.448Z,0.40
2018-06-24T09:07:42.174Z,0.25
2018-06-24T09:10:16.859Z,0.30
2018-06-24T09:12:51.104Z,0.28
2018-06-24T09:15:40.139Z,0.20
2018-06-24T09:26:48.122Z,0.10
2018-06-24T09:29:22.937Z,0.78
2018-06-24T09:32:06.076Z,0.20
2018-06-24T09:34:44.049Z,0.30
2018-06-24T09:37:19.309Z,0.20
2018-06-24T09:39:54.040Z,0.20
2018-06-24T09:42:28.840Z,0.20
2018-06-24T09:45:03.576Z,0.20
2018-06-24T09:47:38.271Z,0.17
2018-06-24T09:50:14.000Z,0.20
2018-06-24T09:52:48.823Z,0.10
2018-06-24T09:55:23.778Z,0.20
2018-06-24T09:57:58.483Z,0.10
2018-06-24T10:00:35.888Z,0.40
2018-06-24T10:03:24.386Z,0.10
2018-06-24T10:05:59.268Z,0.40
2018-06-24T10:08:34.108Z,0.20
2018-06-24T10:11:08.425Z,0.10
2018-06-24T10:13:51.437Z,0.20
2018-06-24T10:16:26.262Z,0.23
2018-06-24T10:22:00.603Z,0.30
2018-06-24T10:24:34.805Z,0.40
2018-06-24T10:27:09.738Z,0.30
2018-06-24T10:29:44.498Z,0.25
2018-06-24T10:32:19.252Z,0.30
2018-06-24T10:34:54.036Z,0.50
2018-06-24T10:37:28.238Z,0.30
2018-06-24T10:40:02.506Z,0.30
2018-06-24T10:42:37.259Z,0.33
2018-06-24T10:45:11.951Z,0.25
2018-06-24T10:47:47.685Z,0.30
2018-06-24T10:50:22.427Z,0.50
2018-06-24T10:52:57.214Z,0.40
2018-06-24T10:55:32.199Z,0.37
2018-06-24T10:58:08.017Z,0.50
2018-06-24T11:00:42.743Z,0.33
2018-06-24T11:03:17.467Z,0.35
2018-06-24T11:05:52.185Z,0.50
2018-06-24T11:08:27.069Z,0.40
2018-06-24T11:11:10.369Z,0.53
2018-06-24T11:19:50.352Z,0.47
2018-06-24T11:22:28.191Z,0.70
2018-06-24T11:25:07.405Z,0.50
2018-06-24T11:27:42.145Z,0.40
2018-06-24T11:30:20.384Z,0.50
2018-06-24T11:33:06.354Z,0.42
2018-06-24T11:43:03.405Z,0.40
2018-06-24T11:46:02.244Z,0.33
2018-06-24T11:48:59.808Z,0.30
2018-06-24T11:51:57.671Z,0.30
2018-06-24T11:57:36.274Z,0.40
2018-06-24T12:00:23.590Z,0.25
2018-06-24T12:03:08.706Z,0.50
2018-06-24T12:05:43.427Z,0.42
2018-06-24T12:08:18.491Z,0.30
2018-06-24T12:10:54.245Z,0.40
2018-06-24T12:13:46.956Z,0.50
2018-06-24T12:16:34.525Z,0.50
2018-06-24T12:19:09.323Z,0.40
2018-06-24T12:21:43.978Z,0.30
2018-06-24T12:24:18.812Z,0.40
2018-06-24T12:26:58.935Z,0.40
2018-06-24T12:29:35.210Z,0.40
2018-06-24T12:32:14.439Z,0.40
2018-06-24T12:35:06.276Z,0.30
2018-06-24T12:37:47.190Z,0.60
2018-06-24T12:40:27.099Z,0.40
2018-06-24T12:43:04.145Z,0.50
2018-06-24T12:45:38.401Z,0.40
2018-06-24T12:48:13.109Z,0.45
2018-06-24T12:50:47.893Z,0.60
2018-06-24T12:53:22.583Z,0.40
2018-06-24T12:55:57.335Z,0.40
2018-06-24T12:58:32.064Z,0.50
2018-06-24T13:01:07.807Z,0.53
2018-06-24T13:03:42.655Z,0.57
2018-06-24T13:06:18.407Z,0.50
2018-06-24T13:08:53.110Z,0.45
2018-06-24T13:11:27.873Z,0.60
2018-06-24T13:14:02.629Z,0.70
2018-06-24T13:16:37.036Z,0.50
2018-06-24T13:19:12.795Z,0.40
2018-06-24T13:21:48.589Z,0.30
2018-06-24T13:24:24.339Z,0.50
2018-06-24T13:26:59.111Z,0.50
2018-06-24T13:29:33.829Z,0.50
2018-06-24T13:32:08.657Z,0.75
2018-06-24T13:34:44.554Z,0.30
2018-06-24T13:37:19.324Z,0.50
2018-06-24T13:39:54.135Z,0.60
2018-06-24T13:42:28.844Z,0.50
2018-06-24T13:45:06.363Z,0.68
2018-06-24T13:47:40.610Z,0.40
2018-06-24T13:50:16.078Z,0.72
2018-06-24T13:52:50.798Z,0.60
2018-06-24T13:55:25.532Z,0.68
2018-06-24T13:58:00.326Z,0.50
2018-06-24T14:00:35.188Z,0.60
2018-06-24T14:03:10.103Z,0.60
2018-06-24T14:05:44.805Z,0.90
2018-06-24T14:08:19.595Z,0.50
2018-06-24T14:10:54.344Z,0.60
2018-06-24T14:13:29.117Z,0.60
2018-06-24T14:16:03.856Z,0.60
2018-06-24T14:18:40.226Z,0.68
2018-06-24T14:21:15.624Z,0.80
2018-06-24T14:23:50.344Z,0.57
2018-06-24T14:26:29.378Z,1.00
2018-06-24T14:29:08.925Z,0.90
2018-06-24T14:34:40.650Z,0.80
2018-06-24T14:37:19.711Z,0.85
2018-06-24T14:40:00.456Z,0.80
2018-06-24T14:42:43.428Z,0.70
2018-06-24T14:45:23.608Z,0.68
2018-06-24T14:48:15.102Z,0.70
2018-06-24T14:50:56.298Z,0.82
2018-06-24T14:53:50.162Z,0.95
2018-06-24T14:56:30.691Z,0.70
2018-06-24T14:59:05.521Z,0.90
2018-06-24T15:01:40.282Z,0.90
2018-06-24T15:04:15.373Z,1.00
2018-06-24T15:06:50.120Z,0.80
2018-06-24T15:09:24.928Z,0.68
2018-06-24T15:11:59.620Z,0.80
2018-06-24T15:14:33.854Z,0.98
2018-06-24T15:17:08.621Z,0.90
2018-06-24T15:19:43.336Z,0.82
2018-06-24T15:22:18.046Z,0.93
2018-06-24T15:24:53.106Z,0.90
2018-06-24T15:27:27.836Z,0.70
2018-06-24T15:30:02.622Z,0.95
2018-06-24T15:32:37.314Z,1.00
2018-06-24T15:35:13.123Z,1.20
2018-06-24T15:37:47.847Z,0.82
2018-06-24T15:40:22.750Z,0.93
2018-06-24T15:42:57.489Z,1.20
2018-06-24T15:45:32.251Z,0.80
2018-06-24T15:48:06.965Z,1.10
2018-06-24T15:50:42.756Z,1.80
2018-06-24T15:53:17.482Z,1.57
2018-06-24T15:55:52.176Z,1.00
2018-06-24T15:58:26.992Z,1.20
2018-06-24T16:01:01.721Z,0.95
2018-06-24T16:03:36.808Z,1.30
2018-06-24T16:06:11.040Z,0.98
2018-06-24T16:08:45.760Z,1.10
2018-06-24T16:11:20.491Z,1.20
2018-06-24T16:13:55.231Z,0.70
2018-06-24T16:16:29.946Z,0.95
2018-06-24T16:19:07.313Z,1.17
2018-06-24T16:21:41.507Z,1.10
2018-06-24T16:24:16.293Z,1.32
2018-06-24T16:26:51.024Z,1.82
2018-06-24T16:29:25.780Z,2.33
2018-06-24T16:32:00.520Z,1.25
2018-06-24T16:35:02.321Z,1.92
2018-06-24T16:37:48.585Z,1.05
2018-06-24T16:40:28.136Z,1.25
2018-06-24T16:43:06.144Z,1.32
2018-06-24T16:45:49.250Z,1.10
2018-06-24T16:48:25.027Z,1.00
2018-06-24T16:50:59.759Z,1.20
2018-06-24T16:53:34.546Z,1.25
2018-06-24T16:56:09.340Z,1.32
2018-06-24T16:58:44.059Z,2.12
2018-06-24T17:01:18.807Z,1.60
2018-06-24T17:03:53.523Z,1.30
2018-06-24T17:06:28.430Z,6.22
2018-06-24T17:09:03.243Z,12.07
2018-06-24T17:11:38.374Z,1.40
2018-06-24T17:20:17.757Z,1.27
2018-06-24T17:23:06.125Z,8.73
2018-06-24T17:25:51.950Z,9.08
2018-06-24T17:31:58.623Z,2.27
2018-06-24T17:43:43.982Z,1.90
2018-06-24T17:46:38.623Z,1.87
2018-06-24T17:52:40.613Z,1.55
2018-06-24T17:55:35.280Z,1.30
2018-06-24T17:58:29.526Z,1.62
2018-06-24T18:01:04.142Z,1.50
2018-06-24T18:03:39.408Z,1.70
2018-06-24T18:06:14.296Z,2.60
2018-06-24T18:08:49.044Z,3.80
2018-06-24T18:11:24.016Z,4.03
2018-06-24T18:13:59.415Z,1.45
2018-06-24T18:16:34.153Z,4.45
2018-06-24T18:19:32.780Z,1.77
2018-06-24T18:22:08.669Z,1.75
2018-06-24T18:24:44.427Z,1.98
2018-06-24T18:27:26.351Z,1.35
2018-06-24T18:30:01.048Z,1.55
2018-06-24T18:35:33.564Z,1.90
2018-06-24T18:40:55.457Z,1.45
2018-06-24T18:43:30.201Z,2.45
2018-06-24T18:46:05.536Z,1.57
2018-06-24T18:48:41.261Z,1.60
2018-06-24T18:51:15.987Z,1.82
2018-06-24T18:54:07.515Z,1.77
2018-06-24T18:56:59.441Z,1.85
2018-06-24T18:59:34.188Z,1.80
2018-06-24T19:02:09.418Z,2.10
2018-06-24T19:04:44.227Z,2.00
2018-06-24T19:07:20.077Z,2.20
2018-06-24T19:09:54.777Z,1.98
2018-06-24T19:12:29.526Z,2.17
2018-06-24T19:15:04.305Z,2.37
2018-06-24T19:17:39.064Z,2.30
2018-06-24T19:20:14.765Z,2.08
2018-06-24T19:22:50.075Z,1.98
2018-06-24T19:25:24.881Z,2.80
2018-06-24T19:27:59.211Z,2.20
2018-06-24T19:30:34.024Z,1.87
2018-06-24T19:33:07.706Z,2.70
2018-06-24T19:38:42.075Z,2.87
2018-06-24T19:41:21.180Z,2.60
2018-06-24T19:43:55.747Z,2.57
2018-06-24T19:46:29.930Z,2.50
2018-06-24T19:49:05.717Z,2.60
2018-06-24T19:51:39.907Z,2.97
2018-06-24T19:54:15.109Z,2.13
2018-06-24T19:56:49.312Z,3.07
2018-06-24T19:59:23.464Z,3.23
2018-06-24T20:01:57.892Z,3.10
2018-06-24T20:04:33.028Z,3.03
2018-06-24T20:07:07.295Z,3.57
2018-06-24T20:09:41.455Z,3.17
2018-06-24T20:12:15.680Z,3.43
2018-06-24T20:14:50.723Z,2.93
2018-06-24T20:17:25.942Z,2.90
2018-06-24T20:20:00.130Z,3.33
2018-06-24T20:22:33.810Z,3.60
2018-06-24T20:25:07.972Z,3.43
2018-06-24T20:31:02.778Z,3.13
2018-06-24T20:34:11.936Z,4.20
2018-06-24T20:37:12.624Z,3.77
2018-06-24T20:40:11.418Z,3.80
2018-06-24T20:43:17.806Z,3.83
2018-06-24T20:45:53.055Z,3.67
2018-06-24T20:48:27.317Z,3.73
2018-06-24T20:51:01.505Z,4.10
2018-06-24T20:53:36.743Z,4.00
2018-06-24T20:56:11.668Z,3.50
2018-06-24T20:58:45.850Z,3.30
2018-06-24T21:01:19.978Z,3.80
2018-06-24T21:03:55.258Z,3.50
2018-06-24T21:06:37.402Z,3.57
2018-06-24T21:09:16.515Z,3.13
2018-06-24T21:11:50.159Z,4.07
2018-06-24T21:14:24.342Z,3.70
2018-06-24T21:16:58.527Z,3.67
2018-06-24T21:19:46.348Z,3.90
2018-06-24T21:22:20.513Z,4.00
2018-06-24T21:24:56.055Z,3.40
2018-06-24T21:30:14.848Z,3.33
2018-06-24T21:32:49.582Z,3.70
2018-06-24T21:35:26.062Z,3.60
2018-06-24T21:38:01.074Z,4.30
2018-06-24T21:40:36.287Z,4.47
2018-06-24T21:43:10.910Z,4.60
2018-06-24T21:45:46.082Z,4.60
2018-06-24T21:48:21.056Z,3.77
2018-06-24T21:50:56.622Z,4.50
2018-06-24T21:53:30.865Z,4.43
2018-06-24T21:56:07.828Z,4.53
2018-06-24T21:58:43.707Z,4.87
2018-06-24T22:01:19.659Z,5.83
2018-06-24T22:03:53.847Z,4.70
2018-06-24T22:06:28.120Z,4.90
2018-06-24T22:09:02.296Z,4.93
2018-06-24T22:11:37.380Z,5.10
2018-06-24T22:14:11.896Z,4.43
2018-06-24T22:16:46.105Z,4.57
2018-06-24T22:19:23.286Z,4.60
2018-06-24T22:21:59.253Z,4.60
2018-06-24T22:24:35.151Z,4.60
2018-06-24T22:27:10.478Z,4.73
2018-06-24T22:29:46.196Z,4.97
2018-06-24T22:32:23.830Z,5.20
2018-06-24T22:34:59.874Z,5.20
2018-06-24T22:37:34.188Z,5.53
2018-06-24T22:40:37.151Z,5.87
2018-06-24T22:43:12.455Z,6.00
2018-06-24T22:45:46.668Z,6.50
2018-06-24T22:48:23.059Z,4.33
2018-06-24T22:50:56.733Z,4.80
2018-06-24T22:53:32.855Z,4.63
2018-06-24T22:56:07.143Z,5.27
2018-06-24T22:58:41.842Z,4.40
2018-06-24T23:01:16.288Z,5.30
2018-06-24T23:03:52.112Z,5.37
2018-06-24T23:06:30.544Z,4.53
2018-06-24T23:09:07.030Z,4.80
2018-06-24T23:11:42.278Z,4.67
2018-06-24T23:14:33.141Z,5.00
2018-06-24T23:17:08.471Z,4.97
2018-06-24T23:19:43.656Z,5.13
2018-06-24T23:22:18.684Z,5.10
2018-06-24T23:24:52.900Z,5.47
2018-06-24T23:27:29.958Z,4.23
2018-06-24T23:30:03.666Z,5.13
2018-06-24T23:32:38.491Z,5.37
2018-06-24T23:35:12.161Z,5.13
2018-06-24T23:37:48.578Z,5.03
2018-06-24T23:40:24.168Z,5.50
2018-06-24T23:42:59.419Z,5.07
2018-06-24T23:45:33.780Z,4.47
2018-06-24T23:48:09.049Z,4.70
2018-06-24T23:50:56.958Z,4.27
2018-06-24T23:53:32.234Z,5.10
2018-06-24T23:56:09.443Z,5.10
2018-06-24T23:58:45.682Z,4.90
